Time;durP1;ratioP1;P1;durP2;ratioP2;P2;SDS_P1;SDS_P2;PMS_P1;PMS_P2;Temp;Humidity;BMP_temperature;BMP_pressure;BME280_temperature;BME280_humidity;BME280_pressure;Samples;Min_cycle;Max_cycle;Signal;HPM_P1;HPM_P2
2023/08/05 00:00:48;;;;;;;6.70;3.60;;;;;;;25.79;50.22;100757.27;107600;1251;112360;-60
2023/08/05 00:03:26;;;;;;;9.30;3.40;;;;;;;25.73;50.10;100756.08;107668;1251;110091;-60
2023/08/05 00:05:55;;;;;;;10.00;3.60;;;;;;;25.67;50.47;100755.98;107581;1254;108218;-61
2023/08/05 00:08:24;;;;;;;12.50;3.70;;;;;;;25.59;50.49;100752.67;107650;1254;97710;-62
2023/08/05 00:10:53;;;;;;;10.20;3.30;;;;;;;25.53;50.77;100752.05;107580;1251;98446;-62
2023/08/05 00:13:22;;;;;;;5.80;3.30;;;;;;;25.47;50.85;100754.17;107587;1254;110986;-60
2023/08/05 00:15:51;;;;;;;9.20;3.50;;;;;;;25.42;50.94;100754.94;107599;1253;110042;-61
2023/08/05 00:18:19;;;;;;;13.70;4.30;;;;;;;25.36;51.06;100753.80;107565;1256;110145;-62
2023/08/05 00:20:50;;;;;;;12.30;3.80;;;;;;;25.31;51.47;100749.65;107605;1254;97701;-60
2023/08/05 00:23:19;;;;;;;6.90;3.80;;;;;;;25.26;51.40;100752.77;107590;1254;98357;-59
2023/08/05 00:25:47;;;;;;;12.90;3.70;;;;;;;25.21;51.46;100753.48;107539;1254;111877;-62
2023/08/05 00:28:16;;;;;;;15.90;3.80;;;;;;;25.18;51.53;100754.64;107603;1254;109601;-60
2023/08/05 00:30:44;;;;;;;8.50;3.70;;;;;;;25.11;51.54;100750.23;107604;1252;108179;-59
2023/08/05 00:33:13;;;;;;;8.60;4.00;;;;;;;25.05;52.32;100746.82;107652;1251;97809;-60
2023/08/05 00:35:41;;;;;;;11.30;4.20;;;;;;;24.90;52.21;100746.67;107627;1251;98353;-59
2023/08/05 00:38:09;;;;;;;7.30;3.90;;;;;;;24.84;52.33;100751.41;107596;1251;111895;-59
2023/08/05 00:40:38;;;;;;;8.60;3.70;;;;;;;24.79;52.61;100747.15;107560;1254;108955;-60
2023/08/05 00:43:06;;;;;;;11.00;4.00;;;;;;;24.76;52.62;100742.38;107581;1254;107813;-60
2023/08/05 00:45:34;;;;;;;10.40;4.10;;;;;;;24.73;52.84;100741.02;107566;1251;97719;-60
2023/08/05 00:48:02;;;;;;;14.20;3.80;;;;;;;24.69;52.99;100740.39;107609;1251;97844;-62
2023/08/05 00:50:32;;;;;;;10.50;3.80;;;;;;;24.65;53.46;100737.86;107560;1251;111435;-59
2023/08/05 00:53:01;;;;;;;13.20;4.90;;;;;;;24.59;53.34;100738.58;107582;1253;108704;-60
2023/08/05 00:55:30;;;;;;;10.50;4.00;;;;;;;24.55;53.57;100741.20;107622;1255;108939;-61
2023/08/05 00:57:58;;;;;;;11.10;4.50;;;;;;;24.52;53.50;100738.70;107573;1251;97912;-60
2023/08/05 01:00:27;;;;;;;16.80;3.60;;;;;;;24.49;53.62;100731.59;107613;1254;97716;-60
2023/08/05 01:02:55;;;;;;;15.10;4.30;;;;;;;24.45;53.76;100734.23;107568;1254;110961;-59
2023/08/05 01:05:25;;;;;;;10.90;4.30;;;;;;;24.41;53.79;100730.80;107635;1253;109415;-59
2023/08/05 01:07:55;;;;;;;16.10;4.00;;;;;;;24.37;53.85;100732.27;107552;1256;108465;-61
2023/08/05 01:10:26;;;;;;;7.50;4.20;;;;;;;24.31;54.10;100728.59;107628;1254;97887;-59
2023/08/05 01:12:55;;;;;;;9.70;4.40;;;;;;;24.25;54.04;100726.38;107594;1254;97904;-60
2023/08/05 01:15:24;;;;;;;13.50;4.40;;;;;;;24.19;54.46;100723.18;107549;1254;112442;-59
2023/08/05 01:17:55;;;;;;;10.60;4.40;;;;;;;24.10;54.83;100728.05;107676;1254;109028;-61
2023/08/05 01:20:37;;;;;;;9.30;4.30;;;;;;;24.04;55.18;100727.60;107632;1251;108358;-60
2023/08/05 01:23:37;;;;;;;15.70;4.70;;;;;;;23.93;55.76;100726.10;107641;1251;97799;-61
2023/08/05 01:26:10;;;;;;;11.50;3.80;;;;;;;23.82;55.89;100723.06;107521;1255;97699;-61
2023/08/05 01:28:39;;;;;;;14.40;4.70;;;;;;;23.75;55.97;100724.47;107598;1254;111534;-61
2023/08/05 01:31:09;;;;;;;15.30;4.90;;;;;;;23.75;55.99;100721.38;107605;1256;110075;-61
2023/08/05 01:33:38;;;;;;;14.10;4.30;;;;;;;23.73;56.27;100722.64;107574;1251;108268;-60
2023/08/05 01:36:06;;;;;;;9.60;4.20;;;;;;;23.70;56.37;100722.31;107591;1251;98320;-60
2023/08/05 01:38:35;;;;;;;8.10;4.30;;;;;;;23.67;56.62;100719.48;107600;1251;97815;-60
2023/08/05 01:41:03;;;;;;;13.60;4.50;;;;;;;23.62;56.29;100717.27;107586;1251;111425;-60
2023/08/05 01:43:31;;;;;;;8.70;4.40;;;;;;;23.61;56.42;100721.09;107620;1255;110844;-60
2023/08/05 01:45:59;;;;;;;13.10;3.80;;;;;;;23.60;56.57;100719.48;107615;1256;106995;-59
2023/08/05 01:48:28;;;;;;;8.20;4.30;;;;;;;23.60;56.55;100717.05;107594;1251;97844;-60
2023/08/05 01:50:57;;;;;;;13.90;8.10;;;;;;;23.55;56.74;100718.98;107671;1256;97901;-60
2023/08/05 01:53:25;;;;;;;10.60;4.80;;;;;;;23.50;56.84;100715.95;107617;1251;111964;-61
2023/08/05 01:55:53;;;;;;;13.40;3.70;;;;;;;23.43;57.37;100717.89;107585;1251;110265;-60
2023/08/05 01:58:22;;;;;;;24.70;7.60;;;;;;;23.40;57.35;100719.48;107601;1251;108643;-60
2023/08/05 02:00:51;;;;;;;14.40;9.60;;;;;;;23.39;57.41;100721.52;107555;1254;97874;-60
2023/08/05 02:03:20;;;;;;;13.60;6.10;;;;;;;23.38;57.62;100724.52;107598;1254;97821;-61
2023/08/05 02:05:49;;;;;;;16.60;4.00;;;;;;;23.38;57.63;100723.52;107517;1255;111277;-60
2023/08/05 02:08:19;;;;;;;17.60;4.00;;;;;;;23.36;57.75;100724.33;107600;1254;108775;-59
2023/08/05 02:10:48;;;;;;;20.20;4.40;;;;;;;23.32;58.09;100715.73;107540;1254;108545;-60
2023/08/05 02:13:16;;;;;;;21.90;4.40;;;;;;;23.27;58.23;100718.10;107608;1254;97821;-62
2023/08/05 02:15:44;;;;;;;18.30;4.50;;;;;;;23.26;58.17;100716.77;107573;1254;97716;-62
2023/08/05 02:18:13;;;;;;;18.20;4.30;;;;;;;23.24;58.39;100714.50;107612;1254;111415;-59
2023/08/05 02:20:41;;;;;;;16.80;3.90;;;;;;;23.21;58.64;100716.75;107677;1251;109837;-60
2023/08/05 02:23:09;;;;;;;36.50;4.90;;;;;;;23.18;59.01;100719.96;107565;1251;107149;-62
2023/08/05 02:25:37;;;;;;;18.20;4.10;;;;;;;23.14;58.99;100723.35;107610;1251;97800;-60
2023/08/05 02:28:06;;;;;;;11.90;3.90;;;;;;;23.13;59.30;100724.36;107500;1251;97976;-59
2023/08/05 02:30:34;;;;;;;14.70;4.60;;;;;;;23.13;59.44;100725.50;107544;1254;111424;-60
2023/08/05 02:33:03;;;;;;;14.00;4.20;;;;;;;23.12;59.32;100727.16;107594;1253;109968;-61
2023/08/05 02:35:31;;;;;;;31.10;4.90;;;;;;;23.12;59.54;100726.28;107540;1251;108239;-60
2023/08/05 02:38:01;;;;;;;12.80;3.90;;;;;;;23.08;59.88;100722.00;107650;1251;97819;-61
2023/08/05 02:40:33;;;;;;;32.30;4.40;;;;;;;23.04;59.98;100722.61;107557;1251;97697;-60
2023/08/05 02:43:02;;;;;;;6.60;4.00;;;;;;;23.00;60.07;100718.84;107559;1256;111258;-59
2023/08/05 02:45:30;;;;;;;5.70;3.90;;;;;;;22.95;60.48;100720.16;107514;1255;109651;-60
2023/08/05 02:47:58;;;;;;;5.60;4.10;;;;;;;22.92;60.73;100725.04;107565;1257;108686;-59
2023/08/05 02:50:27;;;;;;;7.70;3.90;;;;;;;22.89;61.25;100726.96;107474;1257;97834;-61
2023/08/05 02:53:08;;;;;;;7.40;4.10;;;;;;;22.86;61.73;100730.85;107503;1256;99514;-62
2023/08/05 02:55:37;;;;;;;8.50;4.20;;;;;;;22.81;62.35;100728.98;107519;1258;111395;-62
2023/08/05 02:58:08;;;;;;;27.80;5.20;;;;;;;22.76;63.20;100730.17;107404;1254;109865;-60
2023/08/05 03:00:43;;;;;;;9.60;3.90;;;;;;;22.74;63.70;100734.42;107535;1253;107815;-61
2023/08/05 03:03:20;;;;;;;17.70;5.20;;;;;;;22.68;63.69;100732.08;107511;1256;97938;-60
2023/08/05 03:05:52;;;;;;;11.40;4.10;;;;;;;22.64;64.34;100736.05;107564;1256;97729;-62
2023/08/05 03:08:30;;;;;;;9.40;4.10;;;;;;;22.61;64.27;100735.39;107358;1251;111759;-62
2023/08/05 03:11:01;;;;;;;12.80;4.50;;;;;;;22.65;64.22;100741.33;107574;1257;109697;-62
2023/08/05 03:13:31;;;;;;;20.60;4.80;;;;;;;22.68;64.45;100743.30;107563;1254;107741;-62
2023/08/05 03:16:11;;;;;;;11.40;4.90;;;;;;;22.69;64.23;100747.55;107559;1251;97743;-65
2023/08/05 03:18:55;;;;;;;14.40;5.10;;;;;;;22.72;64.50;100748.35;107519;1256;97818;-60
2023/08/05 03:21:26;;;;;;;6.30;4.60;;;;;;;22.75;64.60;100754.20;107551;1256;112578;-59
2023/08/05 03:23:58;;;;;;;8.30;4.70;;;;;;;22.76;64.58;100754.73;107617;1254;109649;-60
2023/08/05 03:26:32;;;;;;;6.70;4.50;;;;;;;22.75;64.76;100748.80;107519;1256;107655;-60
2023/08/05 03:29:14;;;;;;;10.20;4.70;;;;;;;22.75;64.98;100748.28;107561;1257;97895;-64
2023/08/05 03:31:49;;;;;;;8.50;4.60;;;;;;;22.73;65.87;100754.92;107618;1256;97726;-60
2023/08/05 03:34:19;;;;;;;12.10;4.50;;;;;;;22.68;65.93;100757.23;107490;1256;112229;-61
2023/08/05 03:36:56;;;;;;;8.80;5.30;;;;;;;22.65;66.29;100753.10;107582;1252;109880;-61
2023/08/05 03:39:33;;;;;;;9.60;5.00;;;;;;;22.64;66.79;100752.80;107600;1252;108995;-61
2023/08/05 03:42:07;;;;;;;11.30;5.40;;;;;;;22.61;67.52;100747.21;107442;1252;97892;-62
2023/08/05 03:44:42;;;;;;;9.00;4.60;;;;;;;22.56;67.85;100740.95;107532;1251;97767;-62
2023/08/05 03:47:17;;;;;;;6.90;5.00;;;;;;;22.56;68.14;100746.98;107533;1256;111203;-62
2023/08/05 03:49:55;;;;;;;12.40;5.00;;;;;;;22.55;68.23;100752.20;107383;1257;109470;-60
2023/08/05 03:52:26;;;;;;;8.80;4.80;;;;;;;22.56;69.11;100762.95;107580;1251;108525;-60
2023/08/05 03:54:55;;;;;;;9.10;5.40;;;;;;;22.52;69.59;100768.66;107544;1254;97735;-59
2023/08/05 03:57:23;;;;;;;10.80;4.60;;;;;;;22.49;69.90;100770.02;107647;1256;97719;-59
2023/08/05 03:59:52;;;;;;;6.40;4.50;;;;;;;22.46;70.17;100768.69;107634;1256;112076;-60
2023/08/05 04:02:20;;;;;;;8.40;5.00;;;;;;;22.45;70.10;100767.63;107640;1254;109587;-60
2023/08/05 04:04:50;;;;;;;7.00;5.00;;;;;;;22.48;71.07;100764.66;107497;1254;107890;-59
2023/08/05 04:07:19;;;;;;;10.30;4.80;;;;;;;22.48;70.99;100764.41;107589;1254;97826;-61
2023/08/05 04:09:49;;;;;;;10.40;5.20;;;;;;;22.52;70.64;100763.61;107575;1255;97835;-60
2023/08/05 04:12:17;;;;;;;11.50;5.70;;;;;;;22.57;71.56;100763.46;107533;1254;111521;-59
2023/08/05 04:14:46;;;;;;;8.80;5.30;;;;;;;22.59;72.48;100765.23;107533;1251;109061;-61
2023/08/05 04:17:15;;;;;;;11.40;5.80;;;;;;;22.58;72.67;100761.52;107549;1252;108046;-61
2023/08/05 04:19:45;;;;;;;9.00;5.60;;;;;;;22.58;72.21;100756.80;107541;1252;97830;-60
2023/08/05 04:22:13;;;;;;;9.40;5.10;;;;;;;22.60;71.97;100755.69;107586;1254;97859;-60
2023/08/05 04:24:45;;;;;;;7.30;4.80;;;;;;;22.65;71.87;100754.98;107656;1254;111770;-61
2023/08/05 04:27:13;;;;;;;7.30;4.70;;;;;;;22.70;71.67;100748.23;107625;1254;109088;-61
2023/08/05 04:29:42;;;;;;;10.80;7.10;;;;;;;22.76;71.67;100749.00;107566;1254;108259;-60
2023/08/05 04:32:10;;;;;;;8.30;4.60;;;;;;;22.83;71.79;100750.27;107554;1251;98355;-58
2023/08/05 04:34:39;;;;;;;8.90;5.20;;;;;;;22.90;71.88;100751.94;107552;1251;97828;-60
2023/08/05 04:37:22;;;;;;;7.10;4.80;;;;;;;22.95;72.14;100748.35;107524;1257;111912;-61
2023/08/05 04:39:50;;;;;;;12.90;5.40;;;;;;;23.01;72.11;100751.95;107503;1256;109032;-59
2023/08/05 04:42:19;;;;;;;8.00;5.60;;;;;;;23.05;72.22;100747.73;107447;1255;107556;-60
2023/08/05 04:44:48;;;;;;;10.30;6.30;;;;;;;23.09;71.85;100752.25;107583;1254;97720;-60
2023/08/05 04:47:16;;;;;;;10.50;5.80;;;;;;;23.13;72.25;100756.66;107634;1253;97742;-61
2023/08/05 04:49:45;;;;;;;10.60;5.80;;;;;;;23.18;71.96;100759.68;107553;1251;111211;-59
2023/08/05 04:52:14;;;;;;;10.20;5.40;;;;;;;23.22;71.76;100759.09;107533;1251;109664;-60
2023/08/05 04:54:44;;;;;;;11.10;5.10;;;;;;;23.27;71.70;100762.90;107472;1251;107191;-61
2023/08/05 04:57:13;;;;;;;13.80;5.00;;;;;;;23.32;71.82;100762.95;107486;1251;97991;-60
2023/08/05 04:59:41;;;;;;;11.30;5.60;;;;;;;23.35;72.09;100769.05;107561;1251;97707;-61
2023/08/05 05:02:10;;;;;;;7.90;4.90;;;;;;;23.39;72.14;100776.00;107660;1251;113175;-60
2023/08/05 05:04:41;;;;;;;8.40;5.20;;;;;;;23.43;72.51;100779.42;107531;1251;109460;-62
2023/08/05 05:07:09;;;;;;;10.80;5.30;;;;;;;23.48;72.56;100777.66;107587;1251;106301;-61
2023/08/05 05:09:38;;;;;;;9.10;4.80;;;;;;;23.52;72.28;100772.48;107480;1251;97849;-60
2023/08/05 05:12:06;;;;;;;7.10;4.70;;;;;;;23.58;72.23;100767.83;107573;1255;97824;-62
2023/08/05 05:14:44;;;;;;;12.00;5.60;;;;;;;23.62;71.96;100763.36;107638;1254;112285;-60
2023/08/05 05:17:16;;;;;;;9.10;4.70;;;;;;;23.66;72.05;100764.05;107562;1251;108651;-61
2023/08/05 05:19:44;;;;;;;12.70;4.90;;;;;;;23.69;72.13;100762.55;107498;1251;108443;-60
2023/08/05 05:22:19;;;;;;;8.20;4.60;;;;;;;23.74;71.95;100759.67;107497;1251;97844;-61
2023/08/05 05:24:51;;;;;;;7.30;4.40;;;;;;;23.79;71.67;100760.73;107574;1253;98363;-61
2023/08/05 05:27:19;;;;;;;12.30;4.30;;;;;;;23.84;71.22;100755.84;107484;1254;110860;-60
2023/08/05 05:29:48;;;;;;;10.20;5.10;;;;;;;23.90;71.13;100755.52;107627;1254;109537;-60
2023/08/05 05:32:17;;;;;;;6.70;4.70;;;;;;;23.96;70.99;100759.21;107540;1251;107943;-60
2023/08/05 05:34:45;;;;;;;9.90;4.50;;;;;;;24.03;70.66;100760.86;107556;1254;97912;-63
2023/08/05 05:37:13;;;;;;;5.50;4.40;;;;;;;24.09;70.30;100763.84;107535;1254;98350;-60
2023/08/05 05:39:42;;;;;;;9.70;4.50;;;;;;;24.13;70.03;100769.42;107598;1251;111898;-62
2023/08/05 05:42:11;;;;;;;9.50;5.00;;;;;;;24.16;69.75;100773.70;107625;1251;109681;-61
2023/08/05 05:44:39;;;;;;;8.50;4.60;;;;;;;24.19;69.46;100772.14;107605;1251;107161;-61
2023/08/05 05:47:08;;;;;;;8.10;4.20;;;;;;;24.24;69.43;100771.04;107575;1254;97822;-61
2023/08/05 05:49:36;;;;;;;13.10;4.50;;;;;;;24.28;68.90;100768.88;107592;1254;97710;-61
2023/08/05 05:52:07;;;;;;;8.60;3.90;;;;;;;24.31;68.30;100770.84;107626;1251;111865;-60
2023/08/05 05:54:36;;;;;;;7.60;4.50;;;;;;;24.33;68.24;100771.56;107631;1251;109149;-60
2023/08/05 05:57:05;;;;;;;12.00;4.10;;;;;;;24.35;67.76;100775.70;107587;1251;107866;-61
2023/08/05 05:59:33;;;;;;;10.30;3.90;;;;;;;24.36;67.42;100770.95;107599;1251;97804;-61
2023/08/05 06:02:01;;;;;;;11.30;3.70;;;;;;;24.40;66.97;100768.95;107607;1254;97804;-62
2023/08/05 06:04:30;;;;;;;6.20;4.10;;;;;;;24.42;66.38;100769.75;107536;1251;112282;-60
2023/08/05 06:07:01;;;;;;;10.10;3.90;;;;;;;24.45;66.02;100768.86;107588;1254;108805;-60
2023/08/05 06:09:32;;;;;;;9.60;4.20;;;;;;;24.50;64.98;100774.66;107661;1254;107696;-59
2023/08/05 06:12:00;;;;;;;7.20;3.90;;;;;;;24.52;64.29;100775.84;107522;1254;97845;-61
2023/08/05 06:14:29;;;;;;;11.70;4.00;;;;;;;24.57;64.58;100778.33;107657;1251;97803;-61
2023/08/05 06:16:57;;;;;;;6.20;3.60;;;;;;;24.62;64.56;100781.10;107510;1254;110618;-62
2023/08/05 06:19:26;;;;;;;9.10;3.60;;;;;;;24.65;64.34;100784.67;107574;1254;109113;-61
2023/08/05 06:21:54;;;;;;;8.10;3.80;;;;;;;24.67;63.63;100779.44;107629;1254;107266;-62
2023/08/05 06:24:22;;;;;;;5.50;3.80;;;;;;;24.70;63.59;100777.96;107661;1251;97816;-61
2023/08/05 06:26:50;;;;;;;6.00;3.80;;;;;;;24.73;63.09;100772.13;107597;1254;98314;-61
2023/08/05 06:29:19;;;;;;;6.60;4.00;;;;;;;24.76;62.70;100768.23;107609;1251;112485;-60
2023/08/05 06:31:55;;;;;;;5.90;4.10;;;;;;;24.79;62.46;100765.87;107528;1254;110414;-64
2023/08/05 06:34:24;;;;;;;5.10;3.40;;;;;;;24.83;61.88;100771.52;107476;1254;107754;-65
2023/08/05 06:36:52;;;;;;;8.10;3.40;;;;;;;24.87;61.44;100773.84;107531;1254;97914;-61
2023/08/05 06:39:21;;;;;;;8.70;3.40;;;;;;;24.92;61.56;100777.84;107542;1254;97934;-61
2023/08/05 06:41:49;;;;;;;6.40;3.40;;;;;;;24.97;61.41;100780.79;107477;1254;111524;-62
2023/08/05 06:44:20;;;;;;;5.90;3.90;;;;;;;25.03;62.09;100776.38;107580;1251;109748;-61
2023/08/05 06:46:49;;;;;;;5.50;4.00;;;;;;;25.09;62.20;100775.05;107545;1256;108366;-60
2023/08/05 06:49:17;;;;;;;5.20;4.00;;;;;;;25.15;62.42;100773.34;107492;1251;97917;-61
2023/08/05 06:51:47;;;;;;;4.70;3.90;;;;;;;25.22;62.27;100771.72;107586;1254;97813;-60
2023/08/05 06:54:16;;;;;;;6.60;3.40;;;;;;;25.30;62.02;100766.74;107611;1254;111462;-61
2023/08/05 06:56:45;;;;;;;6.40;3.60;;;;;;;25.37;61.94;100768.47;107668;1251;109178;-62
2023/08/05 06:59:13;;;;;;;9.90;3.40;;;;;;;25.43;60.63;100771.30;107590;1253;107674;-62
2023/08/05 07:01:41;;;;;;;5.10;3.40;;;;;;;25.49;59.89;100772.99;107485;1252;97851;-59
2023/08/05 07:04:09;;;;;;;11.40;3.20;;;;;;;25.56;59.68;100774.21;107587;1254;98363;-60
2023/08/05 07:06:38;;;;;;;5.30;3.40;;;;;;;25.64;59.32;100775.31;107592;1254;111068;-61
2023/08/05 07:09:07;;;;;;;8.90;3.30;;;;;;;25.72;58.83;100779.46;107545;1251;109608;-61
2023/08/05 07:11:39;;;;;;;7.60;3.50;;;;;;;25.80;57.77;100789.24;107508;1251;108497;-61
2023/08/05 07:14:08;;;;;;;3.40;3.00;;;;;;;25.88;55.69;100788.09;107560;1254;97841;-62
2023/08/05 07:16:36;;;;;;;4.50;3.40;;;;;;;26.00;54.70;100793.54;107548;1251;97866;-64
2023/08/05 07:19:04;;;;;;;8.20;3.60;;;;;;;26.10;53.11;100788.17;107641;1256;110808;-62
2023/08/05 07:21:33;;;;;;;6.10;3.20;;;;;;;26.21;53.25;100785.30;107499;1254;109797;-61
2023/08/05 07:24:01;;;;;;;7.00;3.50;;;;;;;26.31;53.02;100781.67;107623;1251;108746;-61
2023/08/05 07:26:29;;;;;;;6.70;3.30;;;;;;;26.40;53.42;100782.09;107596;1251;97834;-61
2023/08/05 07:28:57;;;;;;;7.30;3.50;;;;;;;26.50;53.63;100774.90;107576;1251;98382;-66
2023/08/05 07:31:25;;;;;;;7.50;3.50;;;;;;;26.59;54.39;100780.71;107467;1250;112306;-61
2023/08/05 07:33:54;;;;;;;6.00;3.60;;;;;;;26.66;54.67;100774.08;107512;1254;109269;-62
2023/08/05 07:36:22;;;;;;;8.10;3.40;;;;;;;26.73;53.23;100777.16;107591;1254;108097;-61
2023/08/05 07:38:52;;;;;;;7.30;3.90;;;;;;;26.82;52.45;100774.34;107560;1253;97919;-61
2023/08/05 07:41:39;;;;;;;5.70;3.10;;;;;;;26.91;51.25;100776.34;107584;1254;97893;-60
2023/08/05 07:44:09;;;;;;;9.30;3.50;;;;;;;27.00;51.04;100780.77;107524;1251;111398;-60
2023/08/05 07:46:40;;;;;;;8.50;3.30;;;;;;;27.08;50.75;100781.45;107452;1251;108518;-60
2023/08/05 07:49:11;;;;;;;5.10;3.20;;;;;;;27.15;49.64;100779.94;107462;1254;107874;-61
2023/08/05 07:51:39;;;;;;;5.60;3.20;;;;;;;27.23;49.53;100779.75;107532;1251;97796;-60
2023/08/05 07:54:08;;;;;;;7.40;3.20;;;;;;;27.31;49.53;100774.43;107510;1253;98372;-61
2023/08/05 07:56:39;;;;;;;6.70;3.00;;;;;;;27.39;49.53;100773.68;107510;1251;111434;-59
2023/08/05 07:59:07;;;;;;;5.00;3.50;;;;;;;27.45;49.52;100772.39;107553;1251;109764;-61
2023/08/05 08:01:38;;;;;;;6.50;3.60;;;;;;;27.51;49.35;100768.23;107592;1252;108088;-60
2023/08/05 08:04:08;;;;;;;4.30;3.00;;;;;;;27.57;49.14;100769.99;107549;1253;97957;-61
2023/08/05 08:06:37;;;;;;;7.80;3.20;;;;;;;27.63;49.11;100763.73;107607;1251;99514;-60
2023/08/05 08:09:05;;;;;;;10.10;3.10;;;;;;;27.72;47.79;100757.10;107583;1252;112166;-60
2023/08/05 08:11:33;;;;;;;8.90;3.20;;;;;;;27.80;47.45;100755.73;107614;1251;108768;-61
2023/08/05 08:14:04;;;;;;;6.50;3.10;;;;;;;27.90;46.56;100756.95;107678;1251;107465;-59
2023/08/05 08:16:32;;;;;;;4.50;2.90;;;;;;;28.01;45.46;100750.91;107633;1251;97889;-60
2023/08/05 08:19:04;;;;;;;10.20;2.90;;;;;;;28.10;45.15;100749.85;107623;1251;97910;-61
2023/08/05 08:21:35;;;;;;;12.30;2.90;;;;;;;28.22;44.36;100752.95;107663;1251;112036;-61
2023/08/05 08:24:05;;;;;;;5.40;2.90;;;;;;;28.33;44.26;100755.70;107572;1254;108849;-60
2023/08/05 08:26:33;;;;;;;3.80;2.50;;;;;;;28.43;44.23;100758.83;107559;1251;108267;-61
2023/08/05 08:29:02;;;;;;;4.70;2.90;;;;;;;28.54;44.81;100760.69;107565;1251;97905;-63
2023/08/05 08:31:33;;;;;;;9.50;3.30;;;;;;;28.68;44.21;100765.08;107573;1251;97913;-61
2023/08/05 08:34:02;;;;;;;9.50;3.10;;;;;;;28.79;43.94;100763.02;107637;1251;111726;-62
2023/08/05 08:36:30;;;;;;;11.90;2.80;;;;;;;28.90;44.09;100762.35;107535;1251;109431;-60
2023/08/05 08:38:59;;;;;;;8.20;2.80;;;;;;;29.01;43.90;100755.50;107475;1251;108238;-61
2023/08/05 08:41:32;;;;;;;8.60;2.50;;;;;;;29.12;43.56;100752.56;107474;1254;97847;-63
2023/08/05 08:44:02;;;;;;;11.00;2.50;;;;;;;29.24;43.06;100748.03;107583;1251;97723;-61
2023/08/05 08:46:31;;;;;;;4.20;2.80;;;;;;;29.35;42.18;100754.83;107511;1251;111965;-62
2023/08/05 08:49:00;;;;;;;6.10;2.20;;;;;;;29.44;41.84;100745.05;107450;1251;109820;-62
2023/08/05 08:51:29;;;;;;;6.20;2.80;;;;;;;29.54;41.97;100747.39;107464;1254;108639;-61
2023/08/05 08:53:59;;;;;;;9.10;2.70;;;;;;;29.66;41.77;100745.27;107618;1254;97834;-62
2023/08/05 08:56:27;;;;;;;8.20;2.90;;;;;;;29.76;41.92;100748.01;107609;1254;98469;-60
2023/08/05 08:58:55;;;;;;;4.90;2.50;;;;;;;29.89;41.86;100752.04;107655;1256;111469;-60
2023/08/05 09:01:25;;;;;;;4.50;2.30;;;;;;;30.01;42.09;100750.77;107515;1251;109589;-62
2023/08/05 09:03:56;;;;;;;5.60;2.80;;;;;;;30.12;42.11;100738.23;107534;1253;107654;-60
2023/08/05 09:06:25;;;;;;;7.80;2.10;;;;;;;30.28;41.58;100737.99;107505;1251;97841;-62
2023/08/05 09:08:53;;;;;;;8.20;2.10;;;;;;;30.44;39.78;100738.29;107617;1254;97800;-61
2023/08/05 09:11:22;;;;;;;16.90;2.60;;;;;;;30.52;39.47;100734.39;107572;1251;111523;-60
2023/08/05 09:13:52;;;;;;;13.90;2.50;;;;;;;30.64;39.47;100730.63;107538;1251;109722;-62
2023/08/05 09:16:21;;;;;;;4.20;2.20;;;;;;;30.77;39.77;100723.78;107473;1254;108778;-61
2023/08/05 09:18:54;;;;;;;7.70;2.30;;;;;;;30.95;39.49;100720.04;107465;1251;97816;-63
2023/08/05 09:21:29;;;;;;;8.70;3.00;;;;;;;31.16;38.95;100722.61;107698;1253;97711;-61
2023/08/05 09:23:57;;;;;;;6.80;2.00;;;;;;;31.35;38.47;100719.34;107559;1254;111736;-63
2023/08/05 09:26:30;;;;;;;7.40;2.40;;;;;;;31.57;37.98;100716.50;107531;1251;109526;-60
2023/08/05 09:28:59;;;;;;;10.00;2.70;;;;;;;31.82;37.88;100708.22;107616;1251;106888;-61
2023/08/05 09:31:28;;;;;;;5.10;2.40;;;;;;;32.21;37.57;100708.73;107646;1255;97815;-62
2023/08/05 09:33:56;;;;;;;8.00;2.20;;;;;;;32.66;36.79;100705.55;107526;1254;97743;-61
2023/08/05 09:36:27;;;;;;;9.50;2.40;;;;;;;33.11;36.22;100705.12;107456;1251;111111;-62
2023/08/05 09:39:06;;;;;;;9.00;2.40;;;;;;;33.55;36.00;100703.05;107587;1254;109088;-62
2023/08/05 09:41:39;;;;;;;3.50;2.40;;;;;;;33.99;34.94;100700.01;107481;1254;108500;-61
2023/08/05 09:44:10;;;;;;;10.60;2.10;;;;;;;34.43;34.76;100699.77;107558;1254;97806;-61
2023/08/05 09:46:41;;;;;;;4.80;2.00;;;;;;;34.84;33.97;100703.02;106854;1251;934884;-60
2023/08/05 09:49:12;;;;;;;5.50;2.20;;;;;;;35.19;33.46;100693.95;107542;1251;112220;-60
2023/08/05 09:51:46;;;;;;;6.10;2.60;;;;;;;35.60;33.21;100694.02;107606;1251;109318;-61
2023/08/05 09:54:23;;;;;;;5.70;2.10;;;;;;;35.96;31.85;100696.24;107692;1251;107291;-60
2023/08/05 09:56:53;;;;;;;5.80;2.40;;;;;;;36.12;31.12;100695.27;107562;1254;97797;-61
2023/08/05 09:59:22;;;;;;;12.50;2.10;;;;;;;36.16;30.99;100695.86;107581;1254;98350;-61
2023/08/05 10:01:51;;;;;;;3.80;1.70;;;;;;;36.26;31.04;100692.13;107546;1254;112011;-62
2023/08/05 10:04:21;;;;;;;9.00;2.70;;;;;;;36.46;30.49;100688.30;107597;1254;109815;-61
2023/08/05 10:06:51;;;;;;;11.50;1.80;;;;;;;36.72;30.16;100686.79;107539;1251;107187;-61
2023/08/05 10:09:19;;;;;;;5.00;2.20;;;;;;;37.00;29.98;100680.37;107557;1251;97834;-61
2023/08/05 10:11:48;;;;;;;3.40;1.90;;;;;;;37.29;29.86;100675.77;107593;1254;97847;-61
2023/08/05 10:14:19;;;;;;;3.20;1.60;;;;;;;37.70;29.22;100673.58;107530;1254;112656;-61
2023/08/05 10:16:49;;;;;;;3.70;1.40;;;;;;;38.07;28.35;100668.10;107685;1251;110136;-62
2023/08/05 10:19:33;;;;;;;10.00;1.60;;;;;;;38.47;28.06;100661.98;107616;1254;107326;-61
2023/08/05 10:22:11;;;;;;;4.50;1.80;;;;;;;38.85;27.99;100651.98;107476;1251;97860;-64
2023/08/05 10:24:57;;;;;;;7.10;1.60;;;;;;;39.36;27.68;100654.83;107614;1254;97842;-62
2023/08/05 10:27:33;;;;;;;5.90;2.00;;;;;;;39.87;27.23;100644.26;107585;1255;111412;-60
2023/08/05 10:30:13;;;;;;;3.20;1.60;;;;;;;40.20;25.44;100643.93;107592;1254;108784;-62
2023/08/05 10:33:08;;;;;;;3.80;1.70;;;;;;;40.38;25.31;100647.80;107549;1254;107949;-62
2023/08/05 10:35:39;;;;;;;3.50;1.70;;;;;;;40.65;25.30;100640.09;107488;1251;97803;-59
2023/08/05 10:38:17;;;;;;;3.00;1.50;;;;;;;40.95;24.62;100638.19;107616;1250;97717;-62
2023/08/05 10:40:53;;;;;;;3.70;1.90;;;;;;;41.09;24.18;100639.45;107609;1251;112808;-62
2023/08/05 10:43:31;;;;;;;4.70;1.80;;;;;;;41.21;24.34;100643.65;107586;1254;110290;-61
2023/08/05 10:46:11;;;;;;;2.10;1.40;;;;;;;41.48;24.19;100638.05;107539;1251;108765;-61
2023/08/05 10:48:44;;;;;;;3.10;1.40;;;;;;;41.87;23.09;100638.73;107519;1254;97930;-62
2023/08/05 10:51:18;;;;;;;7.40;2.00;;;;;;;42.07;23.02;100627.84;107540;1253;97793;-61
2023/08/05 10:53:56;;;;;;;8.30;1.60;;;;;;;42.18;22.80;100632.12;107557;1251;111280;-63
2023/08/05 10:56:34;;;;;;;7.60;1.80;;;;;;;42.20;22.91;100619.42;107552;1251;109952;-62
2023/08/05 10:59:05;;;;;;;4.90;1.40;;;;;;;42.48;22.75;100612.08;107437;1250;108247;-62
2023/08/05 11:01:55;;;;;;;1.80;1.20;;;;;;;42.82;22.27;100605.31;107432;1251;97889;-65
2023/08/05 11:04:30;;;;;;;3.60;1.70;;;;;;;43.03;21.65;100606.20;107603;1251;97844;-64
2023/08/05 11:07:03;;;;;;;2.50;1.40;;;;;;;43.20;21.46;100609.74;107538;1251;112143;-62
2023/08/05 11:09:35;;;;;;;10.50;1.60;;;;;;;43.30;21.44;100608.15;107507;1253;108462;-63
2023/08/05 11:12:04;;;;;;;4.50;1.40;;;;;;;43.48;21.02;100605.04;107533;1251;107682;-62
2023/08/05 11:14:37;;;;;;;6.30;1.20;;;;;;;43.51;21.01;100598.42;107500;1251;97822;-60
2023/08/05 11:17:08;;;;;;;4.20;1.20;;;;;;;43.45;20.73;100587.91;107504;1254;97703;-62
2023/08/05 11:19:53;;;;;;;2.50;1.30;;;;;;;43.59;21.23;100592.16;107549;1254;112125;-62
2023/08/05 11:22:28;;;;;;;3.90;1.30;;;;;;;43.92;20.80;100583.71;107518;1251;109456;-61
2023/08/05 11:24:57;;;;;;;4.60;1.30;;;;;;;44.32;20.45;100574.59;107515;1251;107948;-62